»·PEaware :: AAL404 KSNA-KLAS

AAL404 :: KSNA-KLAS

FLIGHT INFORMATION

Flight Status: Arrived
Operator:
American Airlines
More flights by this operator :: More flights under this callsign
Pilot: Wadhah A. (6578)
Aircraft: EMBRAER ERJ-135/140
(E135)
More flights by this aircraft type
Origin: KSNA John Wayne-Orange Co
United States
Destination: KLAS McCarran Intl
United States
More flights between these airports :: More routes between these airports
Route: MUSEL7 DAG KEPEC3
File this flight plan on PilotEdge
Remarks:
Altitude:
(Current/Filed)
29,000ft
Speed:
(Current/Filed)
460kts
Departed: 23-May-15 09:10 AM
Arrived: 23-May-15 09:52 AM
Distance/Time
Traveled:
197nm/0:41
Distance/Time
To Go:
Arrived

Flight Plot

Page will automatically refresh every two minutes.


Map Options




Map Legend


Flown Route
Filed Route
Departure Airport
Arrival Airport
Navaid (VOR, NDB)
Fix

Horizontal Profiles

Position Reports

Time Latitude Longitude Heading Altitude Ground
Speed
23-May-15 08:49 33.681143 -117.861209 118 64ft 0kts
23-May-15 08:50 33.681143 -117.861209 118 64ft 0kts
23-May-15 08:51 33.681143 -117.861209 118 64ft 0kts
23-May-15 08:52 33.681143 -117.861209 118 64ft 0kts
23-May-15 08:53 33.681143 -117.861209 118 64ft 0kts
23-May-15 08:54 33.681143 -117.861209 118 64ft 0kts
23-May-15 08:55 33.681143 -117.861209 118 64ft 0kts
23-May-15 08:56 33.681143 -117.861209 118 64ft 0kts
23-May-15 08:57 33.681143 -117.861209 118 64ft 0kts
23-May-15 08:58 33.681143 -117.861209 118 64ft 0kts
23-May-15 08:59 33.681149 -117.861222 118 64ft 1kts
23-May-15 09:00 33.681639 -117.861622 209 64ft 0kts
23-May-15 09:01 33.681639 -117.861622 209 64ft 0kts
23-May-15 09:02 33.681639 -117.861622 209 64ft 0kts
23-May-15 09:03 33.681474 -117.861750 213 64ft 9kts
23-May-15 09:04 33.681180 -117.864209 298 64ft 0kts
23-May-15 09:05 33.681194 -117.864241 298 64ft 2kts
23-May-15 09:06 33.666987 -117.874431 209 232ft 139kts
23-May-15 09:07 33.625299 -117.894251 191 2132ft 213kts
23-May-15 09:08 33.604456 -117.943711 305 6573ft 269kts
23-May-15 09:09 33.664211 -118.000869 339 12783ft 317kts
23-May-15 09:10 33.758735 -118.043636 339 18514ft 361kts
23-May-15 09:11 33.849373 -118.004101 38 21714ft 408kts
23-May-15 09:12 33.937732 -117.920550 38 26039ft 409kts
23-May-15 09:13 34.027438 -117.835768 37 28926ft 430kts
23-May-15 09:14 34.118352 -117.732582 47 29120ft 459kts
23-May-15 09:15 34.200806 -117.622060 47 29154ft 460kts
23-May-15 09:16 34.286675 -117.506037 47 29163ft 469kts
23-May-15 09:17 34.373017 -117.388364 46 29133ft 471kts
23-May-15 09:18 34.459611 -117.270645 46 29140ft 468kts
23-May-15 09:19 34.545142 -117.153697 46 29132ft 464kts
23-May-15 09:20 34.630858 -117.036563 46 29115ft 474kts
23-May-15 09:21 34.718524 -116.916147 46 29085ft 484kts
23-May-15 09:22 34.806808 -116.794683 46 28985ft 467kts
23-May-15 09:23 34.891013 -116.678331 45 27354ft 449kts
23-May-15 09:24 34.973155 -116.568054 42 24681ft 430kts
23-May-15 09:25 35.054246 -116.466033 42 24067ft 417kts
23-May-15 09:26 35.136777 -116.363114 41 24073ft 418kts
23-May-15 09:27 35.214872 -116.264551 41 24031ft 400kts
23-May-15 09:28 35.293288 -116.165426 41 23528ft 408kts
23-May-15 09:29 35.371907 -116.066078 41 22804ft 408kts
23-May-15 09:30 35.449734 -115.967519 42 21436ft 401kts
23-May-15 09:31 35.525820 -115.871664 43 18956ft 387kts
23-May-15 09:32 35.583420 -115.800118 44 17264ft 348kts
23-May-15 09:33 35.659699 -115.704426 46 13324ft 328kts
23-May-15 09:34 35.717699 -115.620904 62 13053ft 320kts
23-May-15 09:35 35.753496 -115.541061 63 12537ft 318kts
23-May-15 09:36 35.795028 -115.446558 63 11093ft 316kts
23-May-15 09:37 35.834655 -115.355064 63 10308ft 286kts
23-May-15 09:38 35.877747 -115.255303 62 9067ft 274kts
23-May-15 09:39 35.904634 -115.189799 63 8283ft 253kts
23-May-15 09:40 35.933125 -115.110997 72 7963ft 248kts
23-May-15 09:41 35.953194 -115.032108 73 7074ft 246kts
23-May-15 09:42 35.976895 -114.956875 46 6730ft 212kts
23-May-15 09:43 36.030564 -114.933026 357 5344ft 212kts
23-May-15 09:44 36.075172 -114.961310 269 3904ft 202kts
23-May-15 09:45 36.073837 -115.026327 267 3267ft 172kts
23-May-15 09:46 36.073478 -115.083625 268 2779ft 170kts
23-May-15 09:47 36.073571 -115.138824 267 2149ft 123kts
23-May-15 09:48 36.075919 -115.151731 333 2149ft 21kts
23-May-15 09:49 36.077440 -115.152040 5 2149ft 0kts
23-May-15 09:50 36.077959 -115.150015 94 2149ft 17kts
23-May-15 09:51 36.077569 -115.143642 94 2149ft 20kts
23-May-15 09:52 36.080492 -115.141627 0 2149ft 14kts
23-May-15 09:53 36.080588 -115.140597 134 2149ft 0kts

Navigation Log

Ident Type
Flight plan parsing failed, navigation log unavailable